Terminal Aerodrome Forecast
Issued by NWS

Home | Current Version | Previous Version | Text Only | Print | Product List | Glossary On
Versions: 1 2 3 4 5 6 7 8 9 10 11 12 13 14 15 16 17 18 19 20 21 22 23 24
000
FTUS46 KOTX 071127
TAFPUW
TAF
KPUW 071127Z 0712/0812 07005KT P6SM VCSH SCT002 OVC060
     FM071800 08006KT P6SM BKN070
     FM080300 10010KT P6SM FEW250=

USA.gov is the U.S. government's official web portal to all federal, state and local government web resources and services.